createdAt,value
2023-02-11T00:00:01.166Z,57.90
2023-02-11T00:02:33.589Z,36.83
2023-02-11T00:05:09.423Z,35.25
2023-02-11T00:07:56.437Z,33.53
2023-02-11T00:10:49.024Z,41.20
2023-02-11T00:13:33.022Z,45.58
2023-02-11T00:16:47.061Z,57.83
2023-02-11T00:19:41.728Z,31.80
2023-02-11T00:22:17.047Z,33.88
2023-02-11T00:27:50.493Z,32.78
2023-02-11T00:30:30.248Z,35.03
2023-02-11T00:33:13.773Z,31.63
2023-02-11T00:36:10.124Z,30.45
2023-02-11T00:39:06.808Z,34.20
2023-02-11T00:41:38.923Z,30.13
2023-02-11T00:44:44.944Z,34.97
2023-02-11T00:47:37.522Z,33.72
2023-02-11T00:50:10.419Z,34.20
2023-02-11T00:52:37.946Z,35.03
2023-02-11T00:55:20.788Z,33.10
2023-02-11T00:58:29.490Z,38.95
2023-02-11T01:01:18.525Z,40.58
2023-02-11T01:04:25.449Z,43.15
2023-02-11T01:07:09.453Z,37.17
2023-02-11T01:13:20.857Z,35.13
2023-02-11T01:16:31.005Z,32.15
2023-02-11T01:19:18.596Z,31.10
2023-02-11T01:22:22.434Z,34.33
2023-02-11T01:25:36.919Z,33.45
2023-02-11T01:28:19.621Z,33.30
2023-02-11T01:31:09.170Z,33.65
2023-02-11T01:33:36.794Z,32.10
2023-02-11T01:36:08.067Z,30.73
2023-02-11T01:38:58.459Z,35.88
2023-02-11T01:42:25.678Z,29.73
2023-02-11T01:46:03.236Z,29.33
2023-02-11T01:49:31.264Z,27.35
2023-02-11T01:52:33.676Z,28.75
2023-02-11T01:55:49.432Z,29.95
2023-02-11T01:58:27.506Z,28.67
2023-02-11T02:01:50.542Z,29.42
2023-02-11T02:05:20.639Z,30.58
2023-02-11T02:11:45.284Z,30.73
2023-02-11T02:15:05.032Z,32.30
2023-02-11T02:18:09.867Z,27.92
2023-02-11T02:21:28.249Z,33.17
2023-02-11T02:24:14.413Z,45.55
2023-02-11T02:27:12.797Z,35.22
2023-02-11T02:30:24.572Z,40.03
2023-02-11T02:33:21.865Z,36.67
2023-02-11T02:39:46.117Z,36.90
2023-02-11T02:42:41.073Z,35.88
2023-02-11T02:45:19.129Z,34.70
2023-02-11T02:48:01.417Z,34.03
2023-02-11T02:50:44.624Z,31.30
2023-02-11T02:54:02.728Z,34.75
2023-02-11T02:57:23.617Z,33.33
2023-02-11T03:03:05.656Z,28.25
2023-02-11T03:05:47.640Z,30.50
2023-02-11T03:08:34.609Z,29.13
2023-02-11T03:14:09.745Z,30.08
2023-02-11T03:17:46.734Z,37.13
2023-02-11T03:21:02.969Z,47.45
2023-02-11T03:23:40.435Z,43.05
2023-02-11T03:27:03.553Z,43.05
2023-02-11T03:29:54.932Z,37.90
2023-02-11T03:33:07.537Z,35.95
2023-02-11T03:36:15.723Z,35.63
2023-02-11T03:39:01.860Z,35.75
2023-02-11T03:42:03.961Z,48.08
2023-02-11T03:44:54.647Z,47.28
2023-02-11T03:47:46.530Z,74.47
2023-02-11T03:50:34.438Z,79.97
2023-02-11T03:53:12.514Z,77.45
2023-02-11T03:56:14.374Z,83.72
2023-02-11T04:04:48.860Z,81.90
2023-02-11T04:07:43.308Z,90.50
2023-02-11T04:10:52.021Z,79.30
2023-02-11T04:13:35.442Z,98.25
2023-02-11T04:16:45.882Z,60.13
2023-02-11T04:19:43.734Z,43.45
2023-02-11T04:22:19.355Z,61.47
2023-02-11T04:25:22.365Z,37.80
2023-02-11T04:28:05.332Z,43.28
2023-02-11T04:31:02.290Z,33.58
2023-02-11T04:33:42.047Z,57.65
2023-02-11T04:36:18.241Z,45.55
2023-02-11T04:39:25.713Z,37.13
2023-02-11T04:42:12.100Z,32.88
2023-02-11T04:45:01.919Z,32.38
2023-02-11T04:47:58.684Z,30.60
2023-02-11T04:50:48.162Z,32.40
2023-02-11T04:53:48.382Z,32.03
2023-02-11T04:56:51.788Z,28.50
2023-02-11T04:59:35.384Z,31.15
2023-02-11T05:02:27.446Z,77.03
2023-02-11T05:04:58.760Z,56.72
2023-02-11T05:10:53.017Z,40.67
2023-02-11T05:13:52.313Z,38.08
2023-02-11T05:16:32.066Z,35.17
2023-02-11T05:19:34.099Z,37.53
2023-02-11T05:22:14.620Z,34.25
2023-02-11T05:27:52.943Z,34.70
2023-02-11T05:30:49.165Z,28.23
2023-02-11T05:33:40.549Z,34.10
2023-02-11T05:36:35.212Z,120.90
2023-02-11T05:39:15.507Z,36.95
2023-02-11T05:41:52.825Z,33.17
2023-02-11T05:44:23.935Z,29.35
2023-02-11T05:47:12.554Z,26.75
2023-02-11T05:49:45.508Z,29.02
2023-02-11T05:52:23.668Z,43.00
2023-02-11T05:54:54.690Z,30.40
2023-02-11T05:57:27.465Z,33.40
2023-02-11T05:59:58.528Z,32.13
2023-02-11T06:02:34.053Z,30.95
2023-02-11T06:05:20.180Z,33.78
2023-02-11T06:08:06.494Z,28.55
2023-02-11T06:10:49.085Z,26.40
2023-02-11T06:13:38.032Z,26.60
2023-02-11T06:16:14.496Z,26.02
2023-02-11T06:18:45.221Z,29.92
2023-02-11T06:21:18.665Z,30.70
2023-02-11T06:24:17.441Z,27.52
2023-02-11T06:26:50.342Z,28.42
2023-02-11T06:29:31.032Z,27.42
2023-02-11T06:32:05.324Z,29.80
2023-02-11T06:34:39.333Z,28.95
2023-02-11T06:37:10.873Z,33.40
2023-02-11T06:39:39.016Z,32.20
2023-02-11T06:42:11.987Z,28.25
2023-02-11T06:44:47.633Z,31.08
2023-02-11T06:47:26.859Z,28.20
2023-02-11T06:50:03.540Z,26.67
2023-02-11T06:52:36.120Z,28.92
2023-02-11T06:55:11.902Z,46.40
2023-02-11T06:57:43.695Z,45.17
2023-02-11T07:00:17.696Z,32.78
2023-02-11T07:02:46.423Z,29.48
2023-02-11T07:05:14.998Z,32.10
2023-02-11T07:07:43.780Z,37.97
2023-02-11T07:10:13.806Z,39.30
2023-02-11T07:12:41.507Z,38.58
2023-02-11T07:15:22.932Z,38.10
2023-02-11T07:18:03.744Z,49.05
2023-02-11T07:20:32.191Z,87.35
2023-02-11T07:23:02.859Z,42.75
2023-02-11T07:25:44.369Z,37.75
2023-02-11T07:28:15.423Z,32.85
2023-02-11T07:30:49.122Z,34.42
2023-02-11T07:33:25.574Z,34.67
2023-02-11T07:36:06.215Z,33.83
2023-02-11T07:38:37.944Z,34.40
2023-02-11T07:41:16.957Z,40.17
2023-02-11T07:43:46.061Z,51.78
2023-02-11T07:46:18.407Z,49.58
2023-02-11T07:48:47.834Z,53.03
2023-02-11T07:51:24.708Z,58.58
2023-02-11T07:53:53.759Z,54.85
2023-02-11T07:56:23.055Z,58.70
2023-02-11T07:58:52.127Z,60.92
2023-02-11T08:01:25.590Z,63.15
2023-02-11T08:03:54.505Z,68.75
2023-02-11T08:06:26.279Z,50.58
2023-02-11T08:08:54.709Z,64.93
2023-02-11T08:11:29.404Z,68.00
2023-02-11T08:16:28.966Z,60.05
2023-02-11T08:18:59.984Z,52.90
2023-02-11T08:21:29.517Z,59.90
2023-02-11T08:23:57.491Z,61.00
2023-02-11T08:26:29.634Z,61.85
2023-02-11T08:28:59.342Z,42.67
2023-02-11T08:31:35.094Z,63.58
2023-02-11T08:34:03.004Z,67.78
2023-02-11T08:36:35.862Z,42.72
2023-02-11T08:39:19.258Z,68.82
2023-02-11T08:44:21.415Z,49.90
2023-02-11T08:46:53.488Z,45.40
2023-02-11T08:49:22.433Z,49.58
2023-02-11T08:51:55.995Z,40.05
2023-02-11T08:54:24.339Z,38.72
2023-02-11T08:56:52.276Z,36.70
2023-02-11T08:59:20.792Z,35.75
2023-02-11T09:01:49.827Z,41.45
2023-02-11T09:04:17.689Z,46.88
2023-02-11T09:06:46.827Z,40.55
2023-02-11T09:09:16.082Z,38.42
2023-02-11T09:11:45.317Z,41.88
2023-02-11T09:14:21.718Z,33.78
2023-02-11T09:17:14.401Z,36.15
2023-02-11T09:19:50.070Z,33.67
2023-02-11T09:22:35.183Z,31.92
2023-02-11T09:25:06.280Z,34.33
2023-02-11T09:27:42.044Z,38.00
2023-02-11T09:30:13.471Z,32.17
2023-02-11T09:32:41.056Z,32.03
2023-02-11T09:35:08.655Z,32.25
2023-02-11T09:37:37.426Z,33.35
2023-02-11T09:40:13.548Z,32.80
2023-02-11T09:43:16.662Z,31.20
2023-02-11T09:45:51.886Z,33.80
2023-02-11T09:48:24.280Z,32.47
2023-02-11T09:51:00.887Z,34.28
2023-02-11T09:53:41.048Z,31.65
2023-02-11T09:56:15.300Z,36.63
2023-02-11T09:58:55.300Z,32.60
2023-02-11T10:01:47.232Z,33.58
2023-02-11T10:04:38.940Z,32.83
2023-02-11T10:07:25.980Z,31.80
2023-02-11T10:10:16.052Z,33.22
2023-02-11T10:12:52.185Z,36.85
2023-02-11T10:15:38.696Z,32.40
2023-02-11T10:18:42.613Z,36.90
2023-02-11T10:21:32.397Z,49.13
2023-02-11T10:24:13.936Z,34.35
2023-02-11T10:27:02.958Z,32.72
2023-02-11T10:29:40.518Z,33.42
2023-02-11T10:32:54.441Z,32.35
2023-02-11T10:35:27.559Z,34.50
2023-02-11T10:37:59.432Z,33.42
2023-02-11T10:40:32.590Z,35.08
2023-02-11T10:43:17.508Z,32.47
2023-02-11T10:45:53.934Z,33.00
2023-02-11T10:48:52.846Z,34.50
2023-02-11T10:51:28.615Z,32.10
2023-02-11T10:54:04.319Z,31.73
2023-02-11T10:56:44.853Z,31.38
2023-02-11T10:59:35.141Z,34.92
2023-02-11T11:02:25.760Z,32.83
2023-02-11T11:05:17.646Z,31.33
2023-02-11T11:07:56.528Z,31.73
2023-02-11T11:10:39.555Z,33.03
2023-02-11T11:13:23.661Z,32.65
2023-02-11T11:16:12.454Z,32.13
2023-02-11T11:18:42.126Z,31.38
2023-02-11T11:21:30.021Z,30.63
2023-02-11T11:24:03.931Z,29.23
2023-02-11T11:26:54.870Z,27.90
2023-02-11T11:29:43.093Z,25.55
2023-02-11T11:32:27.543Z,25.73
2023-02-11T11:35:00.469Z,26.35
2023-02-11T11:37:29.703Z,24.73
2023-02-11T11:40:08.528Z,25.45
2023-02-11T11:42:40.515Z,24.75
2023-02-11T11:45:20.869Z,41.47
2023-02-11T11:48:00.372Z,25.35
2023-02-11T11:50:55.581Z,24.60
2023-02-11T11:53:32.179Z,24.13
2023-02-11T11:56:32.500Z,39.65
2023-02-11T11:59:23.794Z,24.40
2023-02-11T12:02:23.515Z,26.90
2023-02-11T12:05:35.831Z,28.60
2023-02-11T12:08:23.626Z,22.60
2023-02-11T12:11:19.028Z,24.08
2023-02-11T12:14:15.677Z,24.02
2023-02-11T12:17:05.848Z,21.73
2023-02-11T12:19:58.076Z,22.70
2023-02-11T12:22:59.241Z,23.63
2023-02-11T12:26:27.347Z,23.25
2023-02-11T12:30:05.713Z,26.27
2023-02-11T12:33:23.073Z,20.52
2023-02-11T12:36:34.592Z,22.30
2023-02-11T12:39:29.830Z,21.23
2023-02-11T12:42:34.975Z,20.63
2023-02-11T12:45:18.564Z,20.42
2023-02-11T12:48:18.009Z,20.00
2023-02-11T12:51:32.055Z,18.90
2023-02-11T12:54:32.777Z,19.80
2023-02-11T13:00:42.615Z,19.15
2023-02-11T13:03:26.520Z,19.13
2023-02-11T13:06:01.282Z,20.65
2023-02-11T13:08:55.973Z,20.42
2023-02-11T13:11:34.294Z,20.33
2023-02-11T13:14:31.492Z,22.23
2023-02-11T13:17:20.953Z,20.98
2023-02-11T13:20:15.856Z,19.27
2023-02-11T13:23:00.048Z,19.95
2023-02-11T13:25:43.756Z,20.20
2023-02-11T13:28:33.478Z,19.60
2023-02-11T13:31:03.704Z,20.80
2023-02-11T13:33:42.959Z,19.77
2023-02-11T13:36:27.096Z,19.77
2023-02-11T13:39:21.012Z,19.98
2023-02-11T13:42:01.894Z,20.48
2023-02-11T13:44:36.510Z,19.92
2023-02-11T13:47:32.317Z,20.42
2023-02-11T13:50:13.966Z,19.25
2023-02-11T13:52:45.836Z,19.65
2023-02-11T13:55:25.787Z,20.60
2023-02-11T13:58:11.541Z,21.33
2023-02-11T14:03:52.414Z,21.15
2023-02-11T14:06:47.481Z,21.38
2023-02-11T14:09:17.287Z,22.55
2023-02-11T14:11:49.222Z,21.73
2023-02-11T14:14:24.473Z,21.17
2023-02-11T14:17:03.294Z,23.63
2023-02-11T14:19:40.384Z,25.50
2023-02-11T14:22:20.753Z,26.63
2023-02-11T14:25:15.683Z,21.70
2023-02-11T14:28:10.678Z,25.42
2023-02-11T14:31:00.980Z,30.45
2023-02-11T14:36:52.716Z,35.25
2023-02-11T14:39:43.484Z,35.85
2023-02-11T14:45:29.037Z,36.00
2023-02-11T14:48:21.304Z,38.85
2023-02-11T14:50:54.378Z,24.67
2023-02-11T14:53:28.924Z,32.38
2023-02-11T14:56:01.460Z,36.95
2023-02-11T14:58:39.725Z,22.55
2023-02-11T15:01:39.376Z,34.47
2023-02-11T15:04:30.193Z,41.78
2023-02-11T15:07:10.699Z,29.58
2023-02-11T15:09:44.623Z,28.85
2023-02-11T15:12:25.053Z,35.85
2023-02-11T15:14:59.614Z,26.70
2023-02-11T15:17:31.872Z,26.08
2023-02-11T15:20:03.818Z,34.67
2023-02-11T15:22:38.057Z,39.40
2023-02-11T15:25:16.764Z,26.50
2023-02-11T15:27:55.382Z,25.70
2023-02-11T15:30:34.190Z,28.73
2023-02-11T15:33:05.566Z,25.58
2023-02-11T15:35:38.204Z,26.15
2023-02-11T15:38:10.174Z,25.95
2023-02-11T15:40:37.911Z,26.92
2023-02-11T15:43:13.225Z,31.65
2023-02-11T15:45:55.067Z,26.67
2023-02-11T15:48:50.739Z,32.58
2023-02-11T15:51:29.549Z,48.10
2023-02-11T15:54:06.693Z,40.10
2023-02-11T15:56:48.465Z,32.85
2023-02-11T15:59:28.939Z,40.63
2023-02-11T16:02:05.812Z,28.88
2023-02-11T16:04:37.921Z,37.63
2023-02-11T16:07:06.720Z,31.58
2023-02-11T16:09:36.838Z,25.85
2023-02-11T16:12:24.179Z,27.83
2023-02-11T16:14:52.074Z,22.83
2023-02-11T16:17:26.647Z,25.63
2023-02-11T16:19:55.418Z,26.58
2023-02-11T16:22:27.984Z,28.83
2023-02-11T16:25:01.319Z,27.73
2023-02-11T16:27:41.811Z,44.95
2023-02-11T16:30:34.929Z,92.40
2023-02-11T16:33:04.557Z,45.38
2023-02-11T16:35:32.855Z,51.58
2023-02-11T16:38:02.215Z,52.22
2023-02-11T16:40:33.095Z,65.30
2023-02-11T16:43:01.652Z,50.83
2023-02-11T16:45:32.763Z,40.55
2023-02-11T16:48:02.792Z,40.13
2023-02-11T16:50:31.147Z,44.10
2023-02-11T16:52:59.635Z,45.20
2023-02-11T16:55:29.393Z,42.10
2023-02-11T16:57:58.115Z,49.40
2023-02-11T17:00:26.899Z,33.92
2023-02-11T17:02:55.282Z,35.22
2023-02-11T17:05:25.197Z,27.90
2023-02-11T17:07:53.033Z,28.10
2023-02-11T17:10:23.717Z,25.67
2023-02-11T17:12:53.746Z,34.25
2023-02-11T17:15:21.717Z,82.30
2023-02-11T17:17:50.625Z,71.20
2023-02-11T17:20:19.148Z,58.75
2023-02-11T17:22:47.691Z,333.73
2023-02-11T17:25:17.587Z,303.60
2023-02-11T17:27:45.704Z,79.70
2023-02-11T17:30:15.461Z,218.73
2023-02-11T17:32:44.362Z,73.50
2023-02-11T17:35:13.281Z,85.45
2023-02-11T17:37:41.713Z,69.78
2023-02-11T17:40:11.092Z,64.80
2023-02-11T17:42:39.510Z,97.05
2023-02-11T17:45:09.043Z,48.47
2023-02-11T17:47:38.840Z,50.45
2023-02-11T17:50:08.287Z,43.85
2023-02-11T17:52:38.116Z,60.40
2023-02-11T17:55:06.853Z,53.40
2023-02-11T17:57:36.171Z,47.45
2023-02-11T18:00:06.266Z,52.45
2023-02-11T18:02:41.165Z,50.78
2023-02-11T18:05:09.591Z,33.30
2023-02-11T18:07:38.041Z,46.25
2023-02-11T18:10:08.193Z,80.18
2023-02-11T18:12:36.979Z,58.95
2023-02-11T18:15:06.069Z,60.17
2023-02-11T18:17:34.536Z,74.55
2023-02-11T18:20:05.412Z,69.43
2023-02-11T18:22:39.390Z,66.07
2023-02-11T18:25:09.000Z,83.05
2023-02-11T18:27:37.939Z,65.38
2023-02-11T18:30:07.642Z,56.83
2023-02-11T18:32:35.656Z,84.40
2023-02-11T18:35:04.961Z,69.18
2023-02-11T18:37:33.668Z,65.15
2023-02-11T18:40:02.194Z,33.35
2023-02-11T18:42:29.849Z,52.63
2023-02-11T18:44:58.486Z,60.95
2023-02-11T18:47:27.492Z,56.78
2023-02-11T18:49:55.967Z,79.13
2023-02-11T18:52:23.815Z,57.47
2023-02-11T18:54:52.959Z,85.78
2023-02-11T18:57:21.304Z,70.65
2023-02-11T18:59:57.009Z,76.45
2023-02-11T19:03:09.424Z,70.65
2023-02-11T19:05:47.862Z,54.45
2023-02-11T19:08:17.448Z,74.32
2023-02-11T19:10:50.195Z,65.35
2023-02-11T19:13:19.932Z,114.00
2023-02-11T19:15:48.755Z,89.82
2023-02-11T19:18:17.041Z,70.95
2023-02-11T19:20:45.871Z,63.03
2023-02-11T19:23:14.526Z,61.72
2023-02-11T19:25:48.314Z,98.18
2023-02-11T19:28:17.095Z,81.82
2023-02-11T19:30:46.102Z,75.80
2023-02-11T19:33:15.454Z,48.47
2023-02-11T19:35:43.816Z,58.97
2023-02-11T19:38:14.236Z,65.35
2023-02-11T19:40:46.505Z,50.25
2023-02-11T19:43:15.615Z,32.78
2023-02-11T19:45:57.710Z,43.50
2023-02-11T19:48:26.322Z,45.35
2023-02-11T19:50:55.210Z,58.95
2023-02-11T19:53:23.863Z,53.22
2023-02-11T19:55:53.578Z,72.55
2023-02-11T19:58:21.916Z,167.48
2023-02-11T20:00:52.427Z,58.13
2023-02-11T20:03:20.730Z,59.55
2023-02-11T20:05:49.074Z,69.63
2023-02-11T20:08:17.403Z,75.90
2023-02-11T20:10:45.775Z,65.70
2023-02-11T20:13:14.631Z,63.67
2023-02-11T20:15:43.053Z,27.05
2023-02-11T20:18:11.566Z,40.65
2023-02-11T20:20:39.927Z,36.03
2023-02-11T20:23:08.441Z,28.85
2023-02-11T20:25:40.547Z,33.85
2023-02-11T20:28:08.877Z,25.85
2023-02-11T20:30:39.234Z,28.10
2023-02-11T20:33:07.400Z,23.50
2023-02-11T20:35:36.379Z,22.55
2023-02-11T20:38:07.643Z,28.42
2023-02-11T20:40:36.108Z,27.25
2023-02-11T20:43:29.545Z,38.50
2023-02-11T20:46:05.358Z,27.83
2023-02-11T20:48:34.593Z,31.33
2023-02-11T20:51:07.277Z,26.13
2023-02-11T20:53:37.398Z,23.58
2023-02-11T20:56:07.238Z,27.30
2023-02-11T20:58:36.738Z,35.80
2023-02-11T21:01:13.980Z,28.05
2023-02-11T21:03:44.087Z,25.38
2023-02-11T21:06:12.064Z,28.35
2023-02-11T21:08:40.587Z,24.25
2023-02-11T21:11:09.558Z,25.45
2023-02-11T21:13:39.273Z,26.33
2023-02-11T21:16:11.715Z,25.00
2023-02-11T21:18:40.535Z,24.40
2023-02-11T21:21:09.799Z,24.98
2023-02-11T21:23:39.629Z,25.45
2023-02-11T21:26:09.804Z,32.10
2023-02-11T21:28:40.809Z,26.60
2023-02-11T21:31:18.168Z,25.77
2023-02-11T21:33:46.188Z,26.55
2023-02-11T21:36:17.104Z,24.35
2023-02-11T21:38:50.160Z,23.25
2023-02-11T21:41:22.820Z,24.05
2023-02-11T21:43:51.074Z,23.60
2023-02-11T21:46:20.644Z,21.45
2023-02-11T21:48:49.115Z,22.83
2023-02-11T21:51:24.259Z,23.40
2023-02-11T21:54:01.312Z,26.80
2023-02-11T21:56:31.730Z,22.83
2023-02-11T21:59:02.037Z,23.98
2023-02-11T22:01:35.501Z,24.25
2023-02-11T22:04:04.437Z,24.90
2023-02-11T22:06:34.606Z,24.80
2023-02-11T22:09:05.858Z,25.98
2023-02-11T22:11:35.882Z,28.65
2023-02-11T22:14:04.576Z,27.15
2023-02-11T22:16:33.444Z,30.88
2023-02-11T22:19:06.006Z,29.13
2023-02-11T22:21:35.402Z,31.60
2023-02-11T22:24:04.926Z,35.08
2023-02-11T22:26:33.304Z,28.92
2023-02-11T22:29:01.821Z,25.80
2023-02-11T22:31:44.749Z,27.40
2023-02-11T22:34:12.409Z,24.90
2023-02-11T22:36:42.207Z,27.30
2023-02-11T22:39:16.036Z,26.75
2023-02-11T22:41:46.634Z,30.88
2023-02-11T22:44:17.256Z,27.02
2023-02-11T22:46:48.538Z,29.50
2023-02-11T22:49:18.086Z,30.23
2023-02-11T22:51:46.515Z,32.47
2023-02-11T22:54:17.306Z,28.58
2023-02-11T22:56:46.298Z,28.50
2023-02-11T22:59:15.832Z,29.50
2023-02-11T23:01:44.961Z,31.88
2023-02-11T23:04:15.996Z,35.50
2023-02-11T23:06:47.679Z,28.83
2023-02-11T23:09:15.773Z,29.38
2023-02-11T23:11:44.264Z,29.05
2023-02-11T23:14:17.554Z,29.60
2023-02-11T23:16:51.266Z,26.20
2023-02-11T23:19:21.996Z,30.83
2023-02-11T23:21:52.836Z,27.00
2023-02-11T23:24:23.316Z,30.63
2023-02-11T23:26:57.864Z,28.15
2023-02-11T23:29:25.648Z,29.42
2023-02-11T23:31:53.186Z,27.38
2023-02-11T23:34:25.248Z,27.65
2023-02-11T23:36:52.968Z,27.20
2023-02-11T23:39:20.642Z,32.20
2023-02-11T23:41:48.732Z,28.33
2023-02-11T23:44:23.965Z,27.02
2023-02-11T23:46:51.540Z,25.83
2023-02-11T23:49:19.077Z,29.25
2023-02-11T23:51:46.681Z,28.35
2023-02-11T23:54:14.822Z,27.90
2023-02-11T23:56:45.217Z,27.20
2023-02-11T23:59:14.249Z,27.83
